Time;durP1;ratioP1;P1;durP2;ratioP2;P2;SDS_P1;SDS_P2;PMS_P1;PMS_P2;Temp;Humidity;BMP_temperature;BMP_pressure;BME280_temperature;BME280_humidity;BME280_pressure;Samples;Min_cycle;Max_cycle;Signal;HPM_P1;HPM_P2
2023/03/02 00:00:37;;;;;;;21.43;16.27;;;;;;;-0.52;100.00;96641.06;5073769;28;20451;-75
2023/03/02 00:03:05;;;;;;;25.60;17.27;;;;;;;-0.51;100.00;96651.19;5073747;28;20445;-75
2023/03/02 00:05:33;;;;;;;20.77;15.33;;;;;;;-0.56;100.00;96650.34;5057040;28;20842;-75
2023/03/02 00:08:02;;;;;;;25.57;16.27;;;;;;;-0.61;100.00;96638.13;5073573;28;20827;-75
2023/03/02 00:10:29;;;;;;;29.97;18.97;;;;;;;-0.74;100.00;96647.09;5090694;28;20443;-75
2023/03/02 00:12:57;;;;;;;23.17;15.97;;;;;;;-0.82;100.00;96613.00;5073444;28;20482;-75
2023/03/02 00:15:24;;;;;;;27.33;17.20;;;;;;;-0.84;100.00;96605.47;5073475;28;20436;-75
2023/03/02 00:17:51;;;;;;;24.80;15.93;;;;;;;-0.73;100.00;96637.47;5073361;28;20473;-75
2023/03/02 00:20:17;;;;;;;21.97;15.87;;;;;;;-0.82;100.00;96618.97;5073285;28;20436;-75
2023/03/02 00:22:45;;;;;;;23.13;16.30;;;;;;;-0.88;100.00;96614.78;5057143;28;20443;-75
2023/03/02 00:25:14;;;;;;;23.57;16.33;;;;;;;-0.88;100.00;96626.97;5073114;28;20470;-75
2023/03/02 00:27:41;;;;;;;22.93;16.77;;;;;;;-1.00;100.00;96606.34;5090217;28;20526;-75
2023/03/02 00:30:10;;;;;;;22.90;16.57;;;;;;;-0.88;100.00;96624.38;5090193;28;20480;-74
2023/03/02 00:32:37;;;;;;;27.33;18.90;;;;;;;-0.98;100.00;96610.25;5073142;28;20452;-74
2023/03/02 00:35:04;;;;;;;20.33;15.63;;;;;;;-0.81;100.00;96622.34;5073070;28;20471;-74
2023/03/02 00:37:33;;;;;;;19.17;14.70;;;;;;;-0.99;100.00;96597.53;5073533;28;20428;-74
2023/03/02 00:40:00;;;;;;;22.70;16.03;;;;;;;-0.93;100.00;96619.94;5073972;28;20439;-74
2023/03/02 00:42:26;;;;;;;25.43;15.57;;;;;;;-0.95;100.00;96616.78;5083262;28;20960;-74
2023/03/02 00:44:53;;;;;;;25.63;17.33;;;;;;;-1.17;100.00;96585.72;5059111;28;20460;-74
2023/03/02 00:47:20;;;;;;;23.57;16.10;;;;;;;-1.03;100.00;96596.47;5066897;28;20866;-74
2023/03/02 00:49:48;;;;;;;29.67;15.23;;;;;;;-0.97;100.00;96613.63;5061388;28;20471;-74
2023/03/02 00:52:16;;;;;;;21.20;15.67;;;;;;;-1.02;100.00;96605.81;5092983;28;20459;-74
2023/03/02 00:54:45;;;;;;;23.60;16.00;;;;;;;-1.06;100.00;96602.16;5075942;28;20519;-74
2023/03/02 00:57:12;;;;;;;26.77;15.90;;;;;;;-1.26;100.00;96593.13;5072774;28;20485;-75
2023/03/02 00:59:39;;;;;;;21.40;15.37;;;;;;;-1.28;100.00;96586.63;5071862;28;20432;-74
2023/03/02 01:02:29;;;;;;;24.27;15.47;;;;;;;-1.34;100.00;96593.56;5064593;28;20467;-74
2023/03/02 01:04:56;;;;;;;27.37;14.43;;;;;;;-1.62;100.00;96563.44;5072699;28;20513;-73
2023/03/02 01:07:27;;;;;;;23.80;15.97;;;;;;;-1.51;100.00;96585.84;5072492;28;20931;-73
2023/03/02 01:09:54;;;;;;;25.57;16.77;;;;;;;-1.71;100.00;96557.13;5072539;28;20963;-74
2023/03/02 01:12:21;;;;;;;25.73;15.60;;;;;;;-1.50;100.00;96569.28;5072354;28;20968;-74
2023/03/02 01:14:49;;;;;;;24.03;16.70;;;;;;;-1.60;100.00;96534.72;5072692;28;20844;-74
2023/03/02 01:17:17;;;;;;;27.93;17.67;;;;;;;-1.43;100.00;96539.81;5075116;28;20468;-74
2023/03/02 01:19:44;;;;;;;23.67;17.03;;;;;;;-1.48;100.00;96517.19;5092559;28;20941;-73
2023/03/02 01:22:11;;;;;;;20.63;14.80;;;;;;;-1.33;100.00;96535.50;5090586;28;20447;-73
2023/03/02 01:24:37;;;;;;;21.37;14.50;;;;;;;-1.09;100.00;96550.75;5063428;28;21008;-73
2023/03/02 01:27:04;;;;;;;22.70;14.87;;;;;;;-1.31;100.00;96504.91;5081514;28;20753;-73
2023/03/02 01:29:31;;;;;;;21.10;15.13;;;;;;;-1.16;100.00;96519.84;5072103;28;20521;-73
2023/03/02 01:31:58;;;;;;;25.93;15.63;;;;;;;-0.87;100.00;96545.50;5058648;28;20981;-74
2023/03/02 01:34:25;;;;;;;23.60;16.40;;;;;;;-1.05;100.00;96520.72;5071931;28;20436;-73
2023/03/02 01:36:52;;;;;;;20.80;15.50;;;;;;;-1.05;100.00;96528.50;5055247;28;20470;-73
2023/03/02 01:39:21;;;;;;;23.17;15.87;;;;;;;-0.95;100.00;96544.13;5071748;28;20956;-73
2023/03/02 01:41:50;;;;;;;24.53;16.30;;;;;;;-1.01;100.00;96545.13;5071874;28;20475;-73
2023/03/02 01:44:35;;;;;;;26.73;16.03;;;;;;;-1.07;100.00;96543.50;5073047;28;20511;-73
2023/03/02 01:47:24;;;;;;;25.17;13.77;;;;;;;-1.12;100.00;96540.88;5071714;28;20472;-73
2023/03/02 01:50:23;;;;;;;23.27;16.20;;;;;;;-1.34;100.00;96505.38;5070258;28;20951;-73
2023/03/02 01:52:55;;;;;;;25.83;17.70;;;;;;;-1.13;100.00;96510.78;5071578;28;20539;-73
2023/03/02 01:55:26;;;;;;;24.03;15.50;;;;;;;-1.24;100.00;96502.91;5071608;28;20432;-73
2023/03/02 01:57:54;;;;;;;23.93;16.30;;;;;;;-1.04;100.00;96536.03;5058142;28;20579;-73
2023/03/02 02:00:32;;;;;;;27.97;17.03;;;;;;;-0.92;100.00;96528.06;5071310;28;20483;-73
2023/03/02 02:03:07;;;;;;;23.70;17.80;;;;;;;-0.93;100.00;96523.91;5084108;28;20512;-73
2023/03/02 02:05:41;;;;;;;25.77;16.83;;;;;;;-0.99;100.00;96522.28;5067973;28;20467;-73
2023/03/02 02:08:09;;;;;;;28.67;15.40;;;;;;;-1.03;100.00;96500.47;5049138;28;20496;-73
2023/03/02 02:10:38;;;;;;;22.60;16.70;;;;;;;-0.98;100.00;96511.66;5076917;28;20460;-73
2023/03/02 02:13:09;;;;;;;19.70;15.23;;;;;;;-1.08;100.00;96490.03;5071399;28;20480;-73
2023/03/02 02:15:39;;;;;;;24.17;17.00;;;;;;;-1.11;100.00;96480.94;5074625;28;20433;-73
2023/03/02 02:18:06;;;;;;;27.43;17.60;;;;;;;-1.00;100.00;96497.38;5078996;28;20550;-73
2023/03/02 02:20:44;;;;;;;28.30;17.60;;;;;;;-1.23;100.00;96494.09;5070619;28;20456;-73
2023/03/02 02:23:42;;;;;;;25.77;15.97;;;;;;;-1.09;100.00;96504.81;5091319;28;20431;-73
2023/03/02 02:26:24;;;;;;;24.30;15.27;;;;;;;-0.95;100.00;96497.41;5067552;28;20821;-73
2023/03/02 02:28:56;;;;;;;27.20;17.77;;;;;;;-0.77;100.00;96489.25;5069673;28;20470;-73
2023/03/02 02:31:44;;;;;;;29.43;16.63;;;;;;;-0.75;100.00;96494.97;5072168;28;20476;-73
2023/03/02 02:34:22;;;;;;;23.90;17.37;;;;;;;-0.61;100.00;96496.09;5042723;28;20509;-73
2023/03/02 02:36:55;;;;;;;25.20;15.87;;;;;;;-0.56;100.00;96494.56;5070813;28;20437;-73
2023/03/02 02:39:27;;;;;;;25.53;17.53;;;;;;;-0.74;100.00;96467.22;5076515;28;20950;-73
2023/03/02 02:41:59;;;;;;;28.37;15.90;;;;;;;-0.63;100.00;96487.78;5069350;28;20491;-73
2023/03/02 02:44:27;;;;;;;24.57;17.00;;;;;;;-0.61;100.00;96490.13;5074924;28;20471;-74
2023/03/02 02:46:53;;;;;;;21.30;15.17;;;;;;;-0.67;100.00;96481.53;5070145;28;20440;-74
2023/03/02 02:49:29;;;;;;;23.60;18.67;;;;;;;-0.87;100.00;96465.81;5073179;28;20947;-74
2023/03/02 02:51:57;;;;;;;28.53;17.73;;;;;;;-0.91;100.00;96481.13;5041131;28;20482;-74
2023/03/02 02:54:25;;;;;;;22.23;16.47;;;;;;;-0.92;100.00;96491.75;5051121;28;20480;-74
2023/03/02 02:56:53;;;;;;;23.43;15.77;;;;;;;-0.86;100.00;96508.13;5070588;28;20443;-74
2023/03/02 02:59:30;;;;;;;23.83;15.80;;;;;;;-0.90;100.00;96503.44;5057048;28;20433;-74
2023/03/02 03:01:59;;;;;;;24.43;16.27;;;;;;;-0.92;100.00;96505.50;5070901;28;20468;-74
2023/03/02 03:04:29;;;;;;;21.80;14.90;;;;;;;-1.07;100.00;96487.22;5040443;28;20986;-74
2023/03/02 03:07:02;;;;;;;21.63;15.77;;;;;;;-1.08;100.00;96497.81;5070528;28;20432;-74
2023/03/02 03:09:30;;;;;;;21.43;14.43;;;;;;;-1.15;100.00;96500.63;5053893;28;20437;-74
2023/03/02 03:12:03;;;;;;;22.97;16.40;;;;;;;-1.19;100.00;96499.59;5070485;28;20511;-74
2023/03/02 03:14:38;;;;;;;23.03;15.50;;;;;;;-1.61;100.00;96466.50;5070442;28;20456;-74
2023/03/02 03:17:15;;;;;;;20.63;15.13;;;;;;;-1.51;100.00;96468.44;5051139;28;20432;-74
2023/03/02 03:19:52;;;;;;;25.43;15.57;;;;;;;-1.62;100.00;96500.44;5050341;28;20531;-75
2023/03/02 03:22:19;;;;;;;21.20;14.60;;;;;;;-1.61;100.00;96502.78;5068983;28;20441;-75
2023/03/02 03:24:48;;;;;;;33.60;18.47;;;;;;;-1.85;100.00;96428.97;5074381;28;20543;-75
2023/03/02 03:27:17;;;;;;;24.00;15.23;;;;;;;-1.74;100.00;96453.16;5074259;28;20502;-75
2023/03/02 03:29:47;;;;;;;24.50;15.47;;;;;;;-1.54;100.00;96497.44;5054304;28;21013;-75
2023/03/02 03:32:18;;;;;;;28.83;15.90;;;;;;;-1.48;100.00;96506.81;5074413;28;20521;-75
2023/03/02 03:34:46;;;;;;;20.60;15.70;;;;;;;-1.63;100.00;96465.19;5075579;28;20436;-75
2023/03/02 03:37:39;;;;;;;24.73;16.77;;;;;;;-1.38;100.00;96462.06;5061454;28;20451;-75
2023/03/02 03:40:09;;;;;;;25.90;14.73;;;;;;;-1.11;100.00;96508.69;5044149;28;20479;-75
2023/03/02 03:42:38;;;;;;;22.60;15.80;;;;;;;-1.14;100.00;96511.81;5090136;28;20467;-75
2023/03/02 03:45:07;;;;;;;21.97;15.27;;;;;;;-1.17;100.00;96497.50;5056424;28;20461;-75
2023/03/02 03:47:34;;;;;;;23.93;15.30;;;;;;;-1.03;100.00;96506.44;5065581;28;20444;-75
2023/03/02 03:50:03;;;;;;;22.43;14.17;;;;;;;-1.03;100.00;96508.25;5087570;28;20536;-75
2023/03/02 03:52:30;;;;;;;23.40;15.43;;;;;;;-1.25;100.00;96464.25;5065736;28;20498;-75
2023/03/02 03:55:07;;;;;;;20.83;14.80;;;;;;;-1.33;100.00;96481.06;5073933;28;20435;-76
2023/03/02 03:57:34;;;;;;;23.47;14.73;;;;;;;-1.25;100.00;96469.44;5053755;28;20983;-75
2023/03/02 04:00:01;;;;;;;22.70;16.27;;;;;;;-1.26;100.00;96473.84;5077456;28;20954;-75
2023/03/02 04:02:40;;;;;;;22.83;14.80;;;;;;;-1.18;100.00;96502.94;5073901;28;20483;-75
2023/03/02 04:05:07;;;;;;;21.17;14.63;;;;;;;-1.24;100.00;96499.53;5073612;28;20483;-75
2023/03/02 04:07:37;;;;;;;23.90;14.93;;;;;;;-1.33;100.00;96503.59;5073606;28;21015;-75
2023/03/02 04:10:06;;;;;;;23.37;15.90;;;;;;;-1.44;100.00;96509.72;5073644;28;20440;-75
2023/03/02 04:12:37;;;;;;;20.27;14.83;;;;;;;-1.47;100.00;96505.78;5076649;28;20488;-75
2023/03/02 04:15:07;;;;;;;24.60;16.73;;;;;;;-1.51;100.00;96504.72;5079833;28;20434;-75
2023/03/02 04:17:34;;;;;;;21.70;15.30;;;;;;;-1.53;100.00;96471.25;5084717;28;20444;-75
2023/03/02 04:20:06;;;;;;;22.90;15.77;;;;;;;-1.42;100.00;96499.88;5078888;28;20933;-75
2023/03/02 04:22:34;;;;;;;23.00;14.77;;;;;;;-1.68;100.00;96478.91;5072137;28;20506;-75
2023/03/02 04:25:01;;;;;;;23.03;15.77;;;;;;;-1.52;100.00;96506.53;5073314;28;20499;-75
2023/03/02 04:27:29;;;;;;;24.77;15.97;;;;;;;-1.57;100.00;96511.66;5073220;28;20944;-75
2023/03/02 04:29:55;;;;;;;23.20;14.60;;;;;;;-1.88;100.00;96457.94;5073479;28;20439;-75
2023/03/02 04:32:22;;;;;;;24.73;15.10;;;;;;;-2.04;100.00;96427.72;5074406;28;20452;-75
2023/03/02 04:34:53;;;;;;;19.87;15.17;;;;;;;-1.42;100.00;96503.25;5072810;28;20494;-75
2023/03/02 04:37:20;;;;;;;26.30;14.43;;;;;;;-1.69;100.00;96463.59;5073222;28;20790;-75
2023/03/02 04:39:50;;;;;;;24.53;17.07;;;;;;;-1.83;100.00;96465.78;5073286;28;20866;-77
2023/03/02 04:42:18;;;;;;;25.80;18.63;;;;;;;-1.68;100.00;96472.94;5061854;28;20495;-75
2023/03/02 04:44:47;;;;;;;21.03;15.50;;;;;;;-1.64;100.00;96466.22;5074249;28;20775;-75
2023/03/02 04:47:17;;;;;;;24.07;16.03;;;;;;;-1.63;100.00;96465.19;5080819;28;20440;-75
2023/03/02 04:49:44;;;;;;;24.57;16.70;;;;;;;-1.54;100.00;96484.47;5073507;28;20477;-74
2023/03/02 04:52:10;;;;;;;27.03;15.50;;;;;;;-1.71;100.00;96452.69;5072978;28;20539;-74
2023/03/02 04:54:37;;;;;;;23.47;14.93;;;;;;;-1.57;100.00;96467.59;5072896;28;20436;-74
2023/03/02 04:57:03;;;;;;;23.83;16.37;;;;;;;-1.41;100.00;96478.13;5074300;28;20430;-74
2023/03/02 04:59:30;;;;;;;24.50;17.43;;;;;;;-1.75;100.00;96444.59;5073076;28;20532;-75
2023/03/02 05:01:59;;;;;;;27.13;16.70;;;;;;;-1.71;100.00;96434.56;5072580;28;20464;-75
2023/03/02 05:04:27;;;;;;;26.73;17.20;;;;;;;-1.31;100.00;96480.81;5073219;28;20489;-74
2023/03/02 05:06:54;;;;;;;27.60;15.87;;;;;;;-1.50;100.00;96449.25;5056071;28;20996;-74
2023/03/02 05:09:26;;;;;;;23.97;15.50;;;;;;;-1.30;100.00;96459.03;5087485;28;20439;-74
2023/03/02 05:11:59;;;;;;;26.17;16.30;;;;;;;-1.10;100.00;96468.75;5061343;28;20467;-74
2023/03/02 05:14:26;;;;;;;25.20;16.70;;;;;;;-1.23;100.00;96442.22;5084690;28;20420;-75
2023/03/02 05:16:53;;;;;;;29.47;15.97;;;;;;;-1.30;100.00;96443.47;5076947;28;20486;-74
2023/03/02 05:19:19;;;;;;;27.77;17.50;;;;;;;-1.49;100.00;96435.25;5090714;28;20446;-74
2023/03/02 05:21:48;;;;;;;25.50;15.90;;;;;;;-1.15;100.00;96474.72;5080038;28;20496;-74
2023/03/02 05:24:15;;;;;;;29.27;18.53;;;;;;;-1.33;100.00;96436.19;5072323;28;20497;-74
2023/03/02 05:26:41;;;;;;;25.27;17.83;;;;;;;-1.28;100.00;96444.00;5059946;28;20471;-74
2023/03/02 05:29:08;;;;;;;24.10;16.70;;;;;;;-1.37;100.00;96455.84;5071235;28;20900;-74
2023/03/02 05:31:38;;;;;;;37.53;16.47;;;;;;;-1.25;100.00;96480.59;5059546;28;20875;-74
2023/03/02 05:34:07;;;;;;;29.83;16.43;;;;;;;-1.23;100.00;96465.56;5072891;28;20799;-74
2023/03/02 05:36:34;;;;;;;26.20;15.33;;;;;;;-1.35;100.00;96475.31;5055413;28;20494;-74
2023/03/02 05:39:02;;;;;;;27.33;16.80;;;;;;;-1.42;100.00;96455.81;5075391;28;20424;-75
2023/03/02 05:41:29;;;;;;;25.03;14.93;;;;;;;-1.12;100.00;96486.38;5070946;28;20451;-74
2023/03/02 05:43:56;;;;;;;27.33;16.60;;;;;;;-1.20;100.00;96478.03;5071871;28;20436;-74
2023/03/02 05:46:23;;;;;;;33.30;17.30;;;;;;;-1.15;100.00;96473.91;5071198;28;20612;-74
2023/03/02 05:48:50;;;;;;;27.90;17.27;;;;;;;-1.07;100.00;96494.19;5075108;28;20424;-75
2023/03/02 05:51:17;;;;;;;25.70;15.90;;;;;;;-1.35;100.00;96461.56;5071504;28;20841;-75
2023/03/02 05:53:43;;;;;;;21.50;15.50;;;;;;;-1.45;100.00;96456.31;5071699;28;20424;-75
2023/03/02 05:56:10;;;;;;;31.67;20.80;;;;;;;-1.15;100.00;96492.09;5074963;28;20435;-75
2023/03/02 05:58:36;;;;;;;30.97;21.07;;;;;;;-1.31;100.00;96468.63;5066099;28;20530;-75
2023/03/02 06:01:08;;;;;;;26.03;18.07;;;;;;;-1.29;100.00;96495.09;5071275;28;21075;-75
2023/03/02 06:03:35;;;;;;;30.57;19.30;;;;;;;-1.20;100.00;96487.66;5071475;28;20432;-75
2023/03/02 06:06:02;;;;;;;25.60;17.57;;;;;;;-1.19;100.00;96494.38;5054755;28;20551;-75
2023/03/02 06:08:29;;;;;;;22.37;14.80;;;;;;;-1.49;100.00;96449.00;5077703;28;20434;-75
2023/03/02 06:10:56;;;;;;;22.63;15.90;;;;;;;-1.18;100.00;96498.53;5083392;28;21086;-75
2023/03/02 06:13:23;;;;;;;23.97;16.40;;;;;;;-1.30;100.00;96482.38;5071227;28;20475;-75
2023/03/02 06:15:49;;;;;;;30.80;17.40;;;;;;;-1.16;100.00;96467.94;5071087;28;20515;-75
2023/03/02 06:18:16;;;;;;;26.93;16.50;;;;;;;-1.21;100.00;96467.91;5071164;28;20468;-75
2023/03/02 06:20:43;;;;;;;20.03;15.03;;;;;;;-1.09;100.00;96470.31;5071157;28;20494;-75
2023/03/02 06:23:10;;;;;;;24.00;17.30;;;;;;;-0.90;100.00;96503.44;5059703;28;20975;-75
2023/03/02 06:25:40;;;;;;;25.60;17.70;;;;;;;-0.70;100.00;96518.34;5069534;28;20964;-75
2023/03/02 06:28:06;;;;;;;24.40;16.33;;;;;;;-0.85;100.00;96522.66;5071023;28;20440;-75
2023/03/02 06:30:33;;;;;;;23.17;15.93;;;;;;;-0.99;100.00;96493.75;5070830;28;20527;-75
2023/03/02 06:33:00;;;;;;;26.17;17.50;;;;;;;-1.02;100.00;96476.09;5071040;28;20482;-75
2023/03/02 06:35:27;;;;;;;22.00;16.20;;;;;;;-1.03;100.00;96496.06;5054314;28;20452;-75
2023/03/02 06:37:54;;;;;;;20.60;16.10;;;;;;;-0.79;100.00;96519.88;5050970;28;20456;-75
2023/03/02 06:40:21;;;;;;;29.07;17.60;;;;;;;-0.87;100.00;96519.53;5069637;28;20539;-75
2023/03/02 06:42:47;;;;;;;20.17;14.23;;;;;;;-0.64;100.00;96527.75;5070793;28;20468;-75
2023/03/02 06:45:14;;;;;;;25.20;16.93;;;;;;;-0.55;100.00;96535.06;5070963;28;20431;-77
2023/03/02 06:47:41;;;;;;;23.23;15.80;;;;;;;-0.50;100.00;96532.53;5077791;28;20964;-74
2023/03/02 06:50:10;;;;;;;24.60;17.60;;;;;;;-0.51;100.00;96516.16;5058693;28;20804;-74
2023/03/02 06:52:37;;;;;;;22.33;15.97;;;;;;;-0.39;100.00;96531.56;5070619;28;20456;-75
2023/03/02 06:55:04;;;;;;;21.53;14.27;;;;;;;-0.32;100.00;96532.88;5077943;28;20433;-74
2023/03/02 06:57:32;;;;;;;27.90;16.77;;;;;;;-0.37;100.00;96516.50;5056937;28;20425;-74
2023/03/02 07:00:01;;;;;;;25.40;16.20;;;;;;;-0.31;100.00;96534.44;5071875;28;20801;-75
2023/03/02 07:02:28;;;;;;;27.03;14.70;;;;;;;-0.48;100.00;96494.09;5070655;28;20843;-75
2023/03/02 07:04:54;;;;;;;23.13;15.47;;;;;;;-0.19;100.00;96526.47;5054038;28;20472;-74
2023/03/02 07:07:21;;;;;;;20.97;14.83;;;;;;;-0.16;100.00;96523.34;5071742;28;20466;-75
2023/03/02 07:09:47;;;;;;;24.87;16.17;;;;;;;-0.05;100.00;96522.38;5070646;28;20807;-75
2023/03/02 07:12:14;;;;;;;28.83;15.10;;;;;;;-0.05;100.00;96509.38;5071776;28;20440;-75
2023/03/02 07:14:41;;;;;;;23.70;15.93;;;;;;;0.01;100.00;96522.41;5070613;28;20529;-75
2023/03/02 07:17:07;;;;;;;24.40;16.20;;;;;;;0.05;100.00;96507.88;5072129;28;20452;-75
2023/03/02 07:19:34;;;;;;;22.30;16.10;;;;;;;0.16;100.00;96512.84;5070412;28;20531;-75
2023/03/02 07:22:01;;;;;;;20.10;14.60;;;;;;;0.42;100.00;96542.31;5071570;28;20447;-75
2023/03/02 07:24:28;;;;;;;22.50;14.27;;;;;;;0.34;100.00;96511.59;5070460;28;20997;-74
2023/03/02 07:26:54;;;;;;;22.90;15.07;;;;;;;0.39;100.00;96497.81;5070242;28;20460;-74
2023/03/02 07:29:21;;;;;;;24.30;16.60;;;;;;;0.73;100.00;96524.94;5053792;28;20440;-75
2023/03/02 07:31:47;;;;;;;21.97;15.00;;;;;;;0.70;100.00;96506.47;5071579;28;20444;-75
2023/03/02 07:34:15;;;;;;;20.13;13.87;;;;;;;0.85;100.00;96516.91;5053695;28;20992;-75
2023/03/02 07:36:41;;;;;;;20.93;13.77;;;;;;;0.93;100.00;96518.97;5053868;28;20428;-75
2023/03/02 07:39:08;;;;;;;21.90;14.03;;;;;;;0.94;100.00;96512.75;5070301;28;20448;-75
2023/03/02 07:41:35;;;;;;;22.03;13.23;;;;;;;1.05;100.00;96514.28;5071465;28;20509;-76
2023/03/02 07:44:01;;;;;;;23.90;15.37;;;;;;;1.31;100.00;96550.75;5071760;28;20771;-75
2023/03/02 07:46:28;;;;;;;18.23;11.00;;;;;;;1.34;100.00;96527.59;5070171;28;20490;-75
2023/03/02 07:48:55;;;;;;;22.60;15.03;;;;;;;1.44;100.00;96524.16;5073701;28;20526;-75
2023/03/02 07:51:21;;;;;;;26.97;13.90;;;;;;;1.52;100.00;96539.28;5056701;28;20548;-75
2023/03/02 07:53:48;;;;;;;24.83;14.80;;;;;;;1.64;100.00;96534.56;5053636;28;20440;-75
2023/03/02 07:56:14;;;;;;;22.13;14.10;;;;;;;1.45;100.00;96500.47;5085042;28;20416;-76
2023/03/02 07:58:41;;;;;;;25.73;15.10;;;;;;;1.62;100.00;96508.00;5061091;28;20556;-75
2023/03/02 08:01:08;;;;;;;27.83;14.90;;;;;;;1.56;100.00;96500.44;5067428;28;20484;-75
2023/03/02 08:03:35;;;;;;;24.20;14.67;;;;;;;1.48;100.00;96514.81;5077127;28;21002;-75
2023/03/02 08:06:08;;;;;;;17.17;14.00;;;;;;;1.77;100.00;96546.28;5066355;28;21043;-75
2023/03/02 08:08:35;;;;;;;28.07;13.90;;;;;;;1.88;100.00;96550.44;5054193;28;20494;-75
2023/03/02 08:11:12;;;;;;;21.30;14.60;;;;;;;1.72;100.00;96539.22;5073565;28;20554;-75
2023/03/02 08:13:39;;;;;;;16.33;12.43;;;;;;;1.98;100.00;96555.59;5073613;28;20464;-77
2023/03/02 08:16:07;;;;;;;24.23;14.63;;;;;;;2.06;100.00;96549.06;5079350;28;20897;-76
2023/03/02 08:18:35;;;;;;;25.07;15.50;;;;;;;1.99;100.00;96540.72;5077129;28;20435;-76
2023/03/02 08:21:02;;;;;;;21.97;15.60;;;;;;;1.90;100.00;96511.06;5076781;28;20461;-76
2023/03/02 08:23:29;;;;;;;20.43;14.67;;;;;;;2.00;100.00;96529.25;5095062;28;20874;-76
2023/03/02 08:25:56;;;;;;;20.17;14.20;;;;;;;1.93;100.00;96500.88;5066507;28;20457;-77
2023/03/02 08:28:22;;;;;;;27.20;15.90;;;;;;;2.08;100.00;96528.72;5053736;28;20556;-77
2023/03/02 08:30:56;;;;;;;24.40;14.37;;;;;;;2.20;100.00;96510.16;5056665;28;20452;-77
2023/03/02 08:33:24;;;;;;;18.20;14.10;;;;;;;2.34;100.00;96522.34;5043281;28;20440;-77
2023/03/02 08:36:06;;;;;;;23.80;16.87;;;;;;;2.48;100.00;96538.19;5073296;28;20486;-77
2023/03/02 08:38:33;;;;;;;20.93;14.67;;;;;;;2.69;100.00;96525.03;5073169;28;20871;-77
2023/03/02 08:41:06;;;;;;;19.40;15.63;;;;;;;2.46;100.00;96508.19;5090073;28;20456;-78
2023/03/02 08:43:32;;;;;;;22.93;14.10;;;;;;;2.54;100.00;96510.25;5073177;28;20995;-78
2023/03/02 08:45:59;;;;;;;23.67;15.97;;;;;;;2.82;100.00;96538.28;5074471;28;20430;-77
2023/03/02 08:48:27;;;;;;;21.00;14.57;;;;;;;2.83;100.00;96536.44;5064468;28;20544;-78
2023/03/02 08:50:57;;;;;;;25.47;15.20;;;;;;;2.46;100.00;96489.94;5074920;28;20555;-78
2023/03/02 08:53:25;;;;;;;18.40;13.30;;;;;;;2.96;100.00;96530.63;5049675;28;20534;-78
2023/03/02 08:55:52;;;;;;;19.83;13.20;;;;;;;3.18;100.00;96535.41;5082773;28;20515;-78
2023/03/02 08:58:19;;;;;;;23.93;15.80;;;;;;;3.03;100.00;96491.88;5054119;28;20437;-78
2023/03/02 09:00:46;;;;;;;22.20;14.70;;;;;;;3.19;100.00;96521.28;5068125;28;20835;-78
2023/03/02 09:03:14;;;;;;;22.40;14.93;;;;;;;3.20;100.00;96492.25;5060150;28;20425;-78
2023/03/02 09:05:40;;;;;;;20.57;13.83;;;;;;;2.94;100.00;96464.81;5074787;28;20467;-78
2023/03/02 09:08:07;;;;;;;22.10;14.63;;;;;;;3.03;100.00;96491.88;5074762;28;20490;-78
2023/03/02 09:10:34;;;;;;;18.07;13.13;;;;;;;3.02;100.00;96468.66;5074784;28;20933;-78
2023/03/02 09:13:01;;;;;;;22.50;14.03;;;;;;;3.45;100.00;96522.63;5074839;28;20862;-78
2023/03/02 09:15:28;;;;;;;25.30;14.57;;;;;;;3.12;100.00;96485.03;5057106;28;20428;-77
2023/03/02 09:17:55;;;;;;;18.10;14.23;;;;;;;3.48;100.00;96521.31;5073377;28;20416;-78
2023/03/02 09:20:22;;;;;;;21.80;16.30;;;;;;;3.50;100.00;96525.22;5087131;28;20931;-78
2023/03/02 09:22:49;;;;;;;19.60;13.60;;;;;;;3.47;100.00;96488.38;5066577;28;20452;-78
2023/03/02 09:25:17;;;;;;;27.17;13.90;;;;;;;3.81;100.00;96537.97;5067384;28;20439;-78
2023/03/02 09:27:45;;;;;;;17.80;14.63;;;;;;;3.72;100.00;96529.94;5053893;28;20885;-78
2023/03/02 09:30:13;;;;;;;23.80;14.90;;;;;;;2.78;100.00;96357.09;5073465;28;20999;-78
2023/03/02 09:32:40;;;;;;;21.23;14.80;;;;;;;4.08;100.00;96530.34;5053370;28;20457;-78
2023/03/02 09:35:07;;;;;;;16.37;13.10;;;;;;;3.92;100.00;96502.03;5073275;28;20493;-78
2023/03/02 09:37:37;;;;;;;20.70;15.23;;;;;;;3.92;100.00;96497.59;5056789;28;20437;-78
2023/03/02 09:40:13;;;;;;;16.57;13.10;;;;;;;3.57;100.00;96441.22;5076878;28;20840;-78
2023/03/02 09:43:13;;;;;;;23.63;14.20;;;;;;;4.14;100.00;96518.78;5073877;28;20483;-78
2023/03/02 09:46:17;;;;;;;19.87;12.93;;;;;;;4.25;100.00;96516.81;5062396;28;20515;-78
2023/03/02 09:48:55;;;;;;;18.07;12.63;;;;;;;4.47;100.00;96516.28;5064779;28;20478;-78
2023/03/02 09:51:38;;;;;;;17.30;11.13;;;;;;;4.63;100.00;96511.63;5059809;28;20479;-78
2023/03/02 09:54:13;;;;;;;23.30;11.73;;;;;;;4.68;100.00;96506.31;5075062;28;20412;-78
2023/03/02 09:56:46;;;;;;;20.40;13.07;;;;;;;4.87;100.00;96520.19;5073459;28;20431;-78
2023/03/02 09:59:19;;;;;;;20.60;11.87;;;;;;;4.89;100.00;96525.13;5073905;28;20436;-79
2023/03/02 10:02:00;;;;;;;21.67;13.67;;;;;;;4.62;100.00;96468.94;5073231;28;20983;-78
2023/03/02 10:04:32;;;;;;;15.23;11.07;;;;;;;4.94;100.00;96497.03;5073309;28;20429;-78
2023/03/02 10:07:11;;;;;;;18.83;11.53;;;;;;;4.99;100.00;96478.59;5079841;28;20457;-79
2023/03/02 10:09:39;;;;;;;19.50;11.20;;;;;;;5.22;100.00;96507.63;5062960;28;21000;-78
2023/03/02 10:12:34;;;;;;;19.73;11.00;;;;;;;5.37;100.00;96507.34;5064270;28;20460;-78
2023/03/02 10:15:24;;;;;;;16.03;12.33;;;;;;;5.47;100.00;96514.25;5063899;28;20953;-78
2023/03/02 10:18:02;;;;;;;18.33;11.60;;;;;;;5.30;100.00;96457.13;5073773;28;20827;-79
2023/03/02 10:20:36;;;;;;;20.47;11.80;;;;;;;5.35;100.00;96467.56;5074231;28;20832;-78
2023/03/02 10:23:41;;;;;;;13.43;10.83;;;;;;;5.77;100.00;96505.88;5074297;28;20808;-79
2023/03/02 10:26:13;;;;;;;16.40;9.80;;;;;;;5.87;100.00;96507.50;5061288;28;20460;-79
2023/03/02 10:28:46;;;;;;;18.67;11.10;;;;;;;5.68;100.00;96485.84;5055270;28;20468;-79
2023/03/02 10:31:24;;;;;;;14.87;9.57;;;;;;;5.48;100.00;96461.56;5052972;28;20548;-78
2023/03/02 10:33:51;;;;;;;16.80;8.80;;;;;;;5.90;100.00;96486.00;5073041;28;20474;-79
2023/03/02 10:36:26;;;;;;;12.90;9.13;;;;;;;6.00;100.00;96487.63;5078546;28;21006;-79
2023/03/02 10:38:55;;;;;;;21.77;9.00;;;;;;;6.15;100.00;96503.88;5073028;28;20412;-79
2023/03/02 10:41:31;;;;;;;15.03;10.07;;;;;;;6.05;100.00;96490.16;5056427;28;20507;-78
2023/03/02 10:44:05;;;;;;;15.77;10.93;;;;;;;6.30;100.00;96502.00;5073035;28;20440;-79
2023/03/02 10:46:43;;;;;;;13.00;8.77;;;;;;;6.27;100.00;96471.84;5072888;28;20559;-79
2023/03/02 10:49:22;;;;;;;13.23;9.07;;;;;;;6.32;100.00;96487.50;5075065;28;20787;-79
2023/03/02 10:51:55;;;;;;;16.57;9.17;;;;;;;6.45;100.00;96475.41;5093289;28;20530;-79
2023/03/02 10:54:22;;;;;;;14.30;10.30;;;;;;;6.44;100.00;96490.41;5060060;28;20452;-79
2023/03/02 10:56:51;;;;;;;14.37;9.80;;;;;;;6.51;100.00;96498.66;5056447;28;20489;-79
2023/03/02 10:59:24;;;;;;;12.30;8.47;;;;;;;6.65;100.00;96489.94;5088529;28;20435;-79
2023/03/02 11:02:00;;;;;;;15.73;8.67;;;;;;;6.62;100.00;96485.28;5056316;28;20492;-79
2023/03/02 11:04:28;;;;;;;15.83;8.30;;;;;;;6.35;100.00;96428.38;5072995;28;20428;-79
2023/03/02 11:07:05;;;;;;;16.20;9.00;;;;;;;6.26;100.00;96394.16;5072936;28;20455;-79
2023/03/02 11:09:32;;;;;;;49.23;10.87;;;;;;;6.63;100.00;96444.81;5078841;28;20447;-78
2023/03/02 11:11:59;;;;;;;17.63;8.77;;;;;;;6.56;100.00;96442.63;5063333;28;20826;-79
2023/03/02 11:14:26;;;;;;;12.17;7.67;;;;;;;6.63;100.00;96431.69;5076042;28;20856;-79
2023/03/02 11:16:53;;;;;;;15.07;8.00;;;;;;;6.95;100.00;96465.63;5074171;28;20427;-79
2023/03/02 11:19:29;;;;;;;12.67;7.93;;;;;;;7.07;100.00;96468.47;5056388;28;20432;-79
2023/03/02 11:22:19;;;;;;;15.20;9.30;;;;;;;7.06;100.00;96461.66;5087494;28;20534;-79
2023/03/02 11:24:54;;;;;;;19.20;9.13;;;;;;;6.74;100.00;96401.47;5063279;28;20429;-78